CZBF

Bathurst Airport

Bathurst, New Brunswick, Canada
METAR CZBF 200100Z 00000KT 12SM OVC040 M10/M13 A2979 RMK SC8 SLP095
Observed Flight Rules
Jan-20 @ 01:00 UTC (22 minutes ago) Visual Flight Rules
Wind Visibility Clouds
Calm 12 miles
  • Overcast at 4,000' AGL
Temperatures Readings
Current -10°C / 14°F
Dewpoint -13°C / 9°F
Humidity 79%
Altimeter 29.79" Hg
Pressure 1009.5 hPa
Elevation 59
METAR CZBF 200100Z 00000KT 12SM OVC040 M10/M13 A2979 RMK SC8 SLP095
Observed Flight Rules
Jan-20 @ 01:00 UTC
(22 minutes ago)
VFR
Wind Visibility
Calm 12 miles
Clouds
  • Overcast at 4,000' AGL
Temperature Dewpoint
-10°C / 14°F -13°C / 9°F
Humidity Altimeter Pressure
79% 29.79" Hg 1009.5 hPa